createdAt,value
2023-01-29T00:00:28.447Z,-0.26
2023-01-29T00:02:56.906Z,-0.30
2023-01-29T00:05:28.125Z,-0.26
2023-01-29T00:07:57.697Z,-0.32
2023-01-29T00:10:27.040Z,-0.38
2023-01-29T00:12:55.745Z,-0.36
2023-01-29T00:15:24.189Z,-0.36
2023-01-29T00:17:54.013Z,-0.28
2023-01-29T00:20:22.446Z,-0.29
2023-01-29T00:22:50.951Z,-0.29
2023-01-29T00:25:19.704Z,-0.28
2023-01-29T00:27:48.155Z,-0.19
2023-01-29T00:30:19.897Z,-0.18
2023-01-29T00:32:48.888Z,-0.17
2023-01-29T00:35:19.001Z,-0.17
2023-01-29T00:37:47.690Z,-0.14
2023-01-29T00:40:16.713Z,-0.14
2023-01-29T00:43:04.126Z,-0.16
2023-01-29T00:45:32.636Z,-0.17
2023-01-29T00:48:01.121Z,-0.19
2023-01-29T00:50:31.416Z,-0.21
2023-01-29T00:53:00.105Z,-0.22
2023-01-29T00:55:28.619Z,-0.21
2023-01-29T00:57:57.328Z,-0.25
2023-01-29T01:00:26.264Z,-0.26
2023-01-29T01:03:08.633Z,-0.25
2023-01-29T01:05:39.392Z,-0.31
2023-01-29T01:08:29.020Z,-0.34
2023-01-29T01:11:00.819Z,-0.38
2023-01-29T01:13:29.411Z,-0.37
2023-01-29T01:15:57.859Z,-0.36
2023-01-29T01:18:26.399Z,-0.36
2023-01-29T01:21:00.122Z,-0.38
2023-01-29T01:23:28.606Z,-0.39
2023-01-29T01:25:57.079Z,-0.44
2023-01-29T01:28:25.900Z,-0.40
2023-01-29T01:30:54.372Z,-0.50
2023-01-29T01:33:22.843Z,-0.45
2023-01-29T01:35:51.292Z,-0.47
2023-01-29T01:38:21.101Z,-0.45
2023-01-29T01:40:49.523Z,-0.47
2023-01-29T01:43:18.020Z,-0.48
2023-01-29T01:45:46.969Z,-0.48
2023-01-29T01:48:21.132Z,-0.49
2023-01-29T01:50:52.431Z,-0.53
2023-01-29T01:53:28.039Z,-0.51
2023-01-29T01:56:00.468Z,-0.51
2023-01-29T01:58:33.314Z,-0.54
2023-01-29T02:01:02.786Z,-0.54
2023-01-29T02:03:50.215Z,-0.61
2023-01-29T02:06:36.398Z,-0.54
2023-01-29T02:09:28.407Z,-0.54
2023-01-29T02:11:57.582Z,-0.53
2023-01-29T02:14:26.715Z,-0.54
2023-01-29T02:16:55.370Z,-0.54
2023-01-29T02:19:38.010Z,-0.50
2023-01-29T02:22:26.101Z,-0.50
2023-01-29T02:25:32.868Z,-0.46
2023-01-29T02:28:15.523Z,-0.41
2023-01-29T02:30:51.534Z,-0.38
2023-01-29T02:33:27.495Z,-0.49
2023-01-29T02:36:04.746Z,-0.39
2023-01-29T02:38:41.968Z,-0.37
2023-01-29T02:41:16.995Z,-0.37
2023-01-29T02:43:49.366Z,-0.37
2023-01-29T02:46:32.351Z,-0.35
2023-01-29T02:49:09.945Z,-0.33
2023-01-29T02:51:44.798Z,-0.35
2023-01-29T02:54:21.884Z,-0.36
2023-01-29T02:56:55.376Z,-0.38
2023-01-29T02:59:32.796Z,-0.34
2023-01-29T03:09:21.936Z,-0.29
2023-01-29T03:11:54.871Z,-0.30
2023-01-29T03:14:51.699Z,-0.29
2023-01-29T03:17:22.865Z,-0.31
2023-01-29T03:19:52.454Z,-0.35
2023-01-29T03:22:23.448Z,-0.31
2023-01-29T03:25:12.007Z,-0.31
2023-01-29T03:28:03.728Z,-0.30
2023-01-29T03:30:55.308Z,-0.29
2023-01-29T03:33:27.665Z,-0.26
2023-01-29T03:36:02.698Z,-0.27
2023-01-29T03:38:32.330Z,-0.25
2023-01-29T03:41:06.528Z,-0.24
2023-01-29T03:43:41.317Z,-0.25
2023-01-29T03:46:19.470Z,-0.21
2023-01-29T03:48:56.614Z,-0.22
2023-01-29T03:51:31.772Z,-0.28
2023-01-29T03:54:09.648Z,-0.29
2023-01-29T03:56:57.828Z,-0.28
2023-01-29T03:59:39.583Z,-0.27
2023-01-29T04:02:14.651Z,-0.30
2023-01-29T04:04:46.837Z,-0.31
2023-01-29T04:07:19.344Z,-0.29
2023-01-29T04:09:51.450Z,-0.30
2023-01-29T04:12:26.573Z,-0.28
2023-01-29T04:14:56.232Z,-0.27
2023-01-29T04:17:33.156Z,-0.28
2023-01-29T04:20:02.616Z,-0.29
2023-01-29T04:22:34.853Z,-0.26
2023-01-29T04:25:08.687Z,-0.35
2023-01-29T04:27:44.676Z,-0.29
2023-01-29T04:30:28.163Z,-0.30
2023-01-29T04:33:12.599Z,-0.29
2023-01-29T04:36:00.236Z,-0.28
2023-01-29T04:38:41.128Z,-0.29
2023-01-29T04:41:16.593Z,-0.29
2023-01-29T04:43:53.395Z,-0.34
2023-01-29T04:46:24.848Z,-0.26
2023-01-29T04:49:14.656Z,-0.31
2023-01-29T04:51:50.868Z,-0.33
2023-01-29T04:54:30.287Z,-0.30
2023-01-29T04:57:06.397Z,-0.30
2023-01-29T04:59:43.070Z,-0.34
2023-01-29T05:02:13.928Z,-0.38
2023-01-29T05:04:46.990Z,-0.35
2023-01-29T05:07:16.936Z,-0.43
2023-01-29T05:09:47.180Z,-0.38
2023-01-29T05:12:18.713Z,-0.38
2023-01-29T05:14:49.539Z,-0.39
2023-01-29T05:17:21.592Z,-0.40
2023-01-29T05:19:51.636Z,-0.37
2023-01-29T05:22:22.911Z,-0.38
2023-01-29T05:24:51.836Z,-0.39
2023-01-29T05:27:41.755Z,-0.41
2023-01-29T05:30:11.691Z,-0.39
2023-01-29T05:32:40.156Z,-0.38
2023-01-29T05:35:10.818Z,-0.37
2023-01-29T05:37:39.460Z,-0.40
2023-01-29T05:40:10.005Z,-0.42
2023-01-29T05:42:38.384Z,-0.38
2023-01-29T05:45:07.771Z,-0.41
2023-01-29T05:47:36.286Z,-0.41
2023-01-29T05:50:06.136Z,-0.40
2023-01-29T05:52:36.070Z,-0.40
2023-01-29T05:55:04.603Z,-0.40
2023-01-29T05:57:33.018Z,-0.38
2023-01-29T06:00:01.450Z,-0.40
2023-01-29T06:02:31.814Z,-0.41
2023-01-29T06:05:00.237Z,-0.40
2023-01-29T06:07:28.686Z,-0.43
2023-01-29T06:09:58.494Z,-0.43
2023-01-29T06:12:28.873Z,-0.39
2023-01-29T06:14:57.280Z,-0.38
2023-01-29T06:17:25.693Z,-0.37
2023-01-29T06:19:54.340Z,-0.35
2023-01-29T06:22:22.772Z,-0.38
2023-01-29T06:24:51.279Z,-0.39
2023-01-29T06:27:21.127Z,-0.40
2023-01-29T06:29:49.700Z,-0.42
2023-01-29T06:32:18.333Z,-0.40
2023-01-29T06:34:49.457Z,-0.43
2023-01-29T06:37:18.243Z,-0.44
2023-01-29T06:39:46.634Z,-0.39
2023-01-29T06:42:15.161Z,-0.43
2023-01-29T06:44:46.001Z,-0.40
2023-01-29T06:47:17.399Z,-0.41
2023-01-29T06:49:45.969Z,-0.42
2023-01-29T06:52:14.663Z,-0.44
2023-01-29T06:54:43.141Z,-0.41
2023-01-29T06:57:13.065Z,-0.46
2023-01-29T06:59:41.699Z,-0.46
2023-01-29T07:02:13.166Z,-0.43
2023-01-29T07:04:43.077Z,-0.50
2023-01-29T07:07:13.529Z,-0.44
2023-01-29T07:09:42.758Z,-0.45
2023-01-29T07:12:11.783Z,-0.45
2023-01-29T07:14:40.199Z,-0.49
2023-01-29T07:17:08.954Z,-0.56
2023-01-29T07:19:38.795Z,-0.57
2023-01-29T07:22:07.200Z,-0.50
2023-01-29T07:24:35.785Z,-0.45
2023-01-29T07:27:04.357Z,-0.47
2023-01-29T07:29:32.907Z,-0.47
2023-01-29T07:32:01.620Z,-0.48
2023-01-29T07:34:31.326Z,-0.43
2023-01-29T07:37:01.280Z,-0.47
2023-01-29T07:39:29.856Z,-0.43
2023-01-29T07:41:58.298Z,-0.57
2023-01-29T07:44:26.755Z,-0.39
2023-01-29T07:46:55.309Z,-0.43
2023-01-29T07:49:23.770Z,-0.40
2023-01-29T07:51:52.307Z,-0.38
2023-01-29T07:54:22.327Z,-0.41
2023-01-29T07:56:51.679Z,-0.37
2023-01-29T07:59:20.920Z,-0.35
2023-01-29T08:01:49.513Z,-0.38
2023-01-29T08:04:18.050Z,-0.36
2023-01-29T08:06:46.739Z,-0.36
2023-01-29T08:09:15.351Z,-0.30
2023-01-29T08:11:45.406Z,-0.28
2023-01-29T08:14:13.837Z,-0.30
2023-01-29T08:16:42.666Z,-0.39
2023-01-29T08:19:11.428Z,-0.37
2023-01-29T08:21:39.919Z,-0.39
2023-01-29T08:24:08.751Z,-0.36
2023-01-29T08:26:37.311Z,-0.35
2023-01-29T08:29:07.279Z,-0.30
2023-01-29T08:31:36.090Z,-0.37
2023-01-29T08:34:04.915Z,-0.32
2023-01-29T08:36:33.897Z,-0.31
2023-01-29T08:39:02.825Z,-0.25
2023-01-29T08:41:31.616Z,-0.22
2023-01-29T08:44:01.710Z,-0.20
2023-01-29T08:46:31.755Z,-0.25
2023-01-29T08:49:00.335Z,-0.17
2023-01-29T08:51:28.806Z,-0.26
2023-01-29T08:53:57.654Z,-0.16
2023-01-29T08:56:26.605Z,-0.12
2023-01-29T08:58:55.301Z,-0.13
2023-01-29T09:01:23.774Z,-0.14
2023-01-29T09:03:53.700Z,-0.08
2023-01-29T09:06:22.254Z,-0.07
2023-01-29T09:08:51.655Z,-0.07
2023-01-29T09:11:20.198Z,-0.08
2023-01-29T09:13:48.663Z,-0.08
2023-01-29T09:16:17.281Z,-0.06
2023-01-29T09:18:45.742Z,-0.07
2023-01-29T09:21:15.729Z,-0.06
2023-01-29T09:23:44.273Z,-0.03
2023-01-29T09:26:12.792Z,-0.02
2023-01-29T09:28:41.220Z,0.00
2023-01-29T09:31:12.526Z,0.01
2023-01-29T09:33:41.112Z,0.06
2023-01-29T09:36:10.599Z,0.05
2023-01-29T09:38:40.510Z,0.05
2023-01-29T09:41:24.239Z,0.06
2023-01-29T09:43:57.018Z,0.09
2023-01-29T09:46:34.299Z,0.10
2023-01-29T09:49:08.858Z,0.12
2023-01-29T09:51:42.128Z,0.16
2023-01-29T09:54:21.302Z,0.17
2023-01-29T09:56:54.283Z,0.20
2023-01-29T09:59:24.981Z,0.22
2023-01-29T10:02:04.878Z,0.29
2023-01-29T10:04:54.088Z,0.25
2023-01-29T10:07:39.987Z,0.36
2023-01-29T10:10:37.523Z,0.42
2023-01-29T10:13:17.450Z,0.46
2023-01-29T10:16:06.448Z,0.49
2023-01-29T10:19:08.001Z,0.56
2023-01-29T10:21:54.036Z,0.56
2023-01-29T10:24:30.969Z,0.57
2023-01-29T10:27:02.732Z,0.61
2023-01-29T10:29:34.335Z,0.66
2023-01-29T10:32:06.191Z,0.70
2023-01-29T10:34:42.468Z,0.69
2023-01-29T10:37:18.756Z,0.70
2023-01-29T10:39:47.563Z,0.76
2023-01-29T10:42:33.600Z,0.78
2023-01-29T10:45:15.831Z,0.83
2023-01-29T10:48:10.130Z,0.86
2023-01-29T10:50:49.218Z,0.90
2023-01-29T10:53:31.146Z,0.94
2023-01-29T10:56:21.816Z,0.99
2023-01-29T10:58:55.190Z,1.02
2023-01-29T11:01:23.844Z,1.07
2023-01-29T11:03:59.739Z,1.11
2023-01-29T11:06:32.360Z,1.18
2023-01-29T11:09:12.608Z,1.21
2023-01-29T11:11:45.867Z,1.25
2023-01-29T11:14:23.069Z,1.28
2023-01-29T11:16:51.777Z,1.30
2023-01-29T11:19:38.227Z,1.35
2023-01-29T11:22:09.817Z,1.38
2023-01-29T11:24:41.046Z,1.43
2023-01-29T11:27:18.752Z,1.43
2023-01-29T11:29:50.819Z,1.46
2023-01-29T11:32:29.978Z,1.49
2023-01-29T11:35:01.999Z,1.47
2023-01-29T11:37:37.247Z,1.53
2023-01-29T11:40:41.471Z,1.61
2023-01-29T11:43:23.162Z,1.66
2023-01-29T11:45:55.538Z,1.71
2023-01-29T11:48:33.526Z,1.92
2023-01-29T11:51:05.590Z,2.05
2023-01-29T11:53:38.899Z,1.94
2023-01-29T11:56:20.089Z,1.94
2023-01-29T11:58:51.960Z,1.93
2023-01-29T12:01:32.087Z,1.98
2023-01-29T12:04:01.855Z,1.97
2023-01-29T12:06:37.338Z,2.00
2023-01-29T12:09:17.598Z,2.02
2023-01-29T12:11:46.251Z,2.08
2023-01-29T12:14:30.305Z,2.06
2023-01-29T12:17:02.913Z,2.05
2023-01-29T12:19:39.759Z,2.00
2023-01-29T12:22:17.342Z,2.00
2023-01-29T12:24:55.638Z,2.02
2023-01-29T12:27:31.889Z,2.06
2023-01-29T12:30:07.781Z,2.10
2023-01-29T12:32:47.250Z,2.11
2023-01-29T12:35:24.737Z,2.10
2023-01-29T12:38:01.172Z,2.15
2023-01-29T12:40:34.449Z,2.08
2023-01-29T12:43:12.782Z,2.23
2023-01-29T12:45:45.381Z,2.22
2023-01-29T12:48:25.054Z,2.22
2023-01-29T12:50:55.227Z,2.25
2023-01-29T12:53:32.213Z,2.25
2023-01-29T12:56:04.944Z,2.27
2023-01-29T12:58:37.767Z,2.28
2023-01-29T13:01:15.735Z,2.21
2023-01-29T13:03:56.503Z,2.25
2023-01-29T13:06:32.063Z,2.18
2023-01-29T13:09:04.926Z,2.28
2023-01-29T13:11:40.119Z,2.40
2023-01-29T13:14:15.794Z,2.45
2023-01-29T13:16:48.099Z,2.43
2023-01-29T13:19:24.532Z,2.45
2023-01-29T13:21:55.850Z,2.43
2023-01-29T13:24:27.318Z,2.46
2023-01-29T13:26:56.206Z,2.44
2023-01-29T13:29:30.085Z,2.45
2023-01-29T13:32:01.624Z,2.45
2023-01-29T13:34:33.949Z,2.44
2023-01-29T13:37:04.782Z,2.46
2023-01-29T13:39:37.773Z,2.48
2023-01-29T13:42:22.677Z,2.45
2023-01-29T13:44:55.463Z,2.45
2023-01-29T13:47:28.299Z,2.45
2023-01-29T13:50:03.839Z,2.46
2023-01-29T13:52:41.213Z,2.47
2023-01-29T13:55:24.174Z,2.46
2023-01-29T13:57:56.272Z,2.47
2023-01-29T14:01:01.720Z,2.52
2023-01-29T14:04:10.180Z,2.51
2023-01-29T14:06:45.519Z,2.50
2023-01-29T14:09:56.550Z,2.50
2023-01-29T14:12:43.134Z,2.49
2023-01-29T14:15:32.584Z,2.50
2023-01-29T14:18:23.878Z,2.54
2023-01-29T14:20:59.581Z,2.52
2023-01-29T14:23:49.456Z,2.51
2023-01-29T14:26:25.627Z,2.50
2023-01-29T14:28:59.248Z,2.56
2023-01-29T14:31:47.211Z,2.57
2023-01-29T14:34:25.289Z,2.57
2023-01-29T14:36:59.742Z,2.52
2023-01-29T14:39:37.659Z,2.56
2023-01-29T14:42:17.771Z,2.47
2023-01-29T14:45:11.545Z,2.49
2023-01-29T14:47:59.824Z,2.46
2023-01-29T14:50:54.989Z,2.38
2023-01-29T14:53:50.491Z,2.44
2023-01-29T14:56:31.944Z,2.47
2023-01-29T14:59:13.459Z,2.45
2023-01-29T15:01:48.626Z,2.51
2023-01-29T15:04:22.732Z,2.52
2023-01-29T15:06:56.969Z,2.53
2023-01-29T15:09:37.347Z,2.55
2023-01-29T15:12:20.701Z,2.56
2023-01-29T15:15:05.447Z,2.51
2023-01-29T15:17:42.051Z,2.49
2023-01-29T15:20:38.677Z,2.48
2023-01-29T15:23:26.755Z,2.41
2023-01-29T15:25:58.285Z,2.33
2023-01-29T15:28:31.136Z,2.33
2023-01-29T15:31:01.957Z,2.30
2023-01-29T15:33:31.675Z,2.28
2023-01-29T15:36:07.454Z,2.30
2023-01-29T15:38:36.562Z,2.28
2023-01-29T15:41:17.744Z,2.21
2023-01-29T15:43:49.372Z,2.24
2023-01-29T15:46:26.067Z,2.26
2023-01-29T15:48:56.479Z,2.33
2023-01-29T15:51:28.513Z,2.30
2023-01-29T15:53:59.817Z,2.33
2023-01-29T15:56:31.978Z,2.43
2023-01-29T15:59:09.366Z,2.33
2023-01-29T16:01:38.461Z,2.28
2023-01-29T16:04:07.548Z,2.28
2023-01-29T16:06:39.374Z,2.43
2023-01-29T16:09:08.845Z,2.30
2023-01-29T16:11:38.067Z,2.36
2023-01-29T16:14:09.133Z,2.28
2023-01-29T16:16:37.866Z,2.28
2023-01-29T16:19:15.683Z,2.26
2023-01-29T16:21:46.384Z,2.24
2023-01-29T16:24:22.751Z,2.22
2023-01-29T16:26:53.103Z,2.21
2023-01-29T16:29:25.105Z,2.17
2023-01-29T16:32:00.724Z,2.20
2023-01-29T16:34:32.985Z,2.18
2023-01-29T16:37:03.363Z,2.18
2023-01-29T16:39:36.154Z,2.18
2023-01-29T16:42:23.273Z,2.09
2023-01-29T16:45:03.787Z,2.15
2023-01-29T16:47:36.449Z,2.13
2023-01-29T16:50:25.659Z,2.08
2023-01-29T16:52:59.355Z,2.09
2023-01-29T16:55:27.980Z,2.06
2023-01-29T16:57:57.602Z,2.10
2023-01-29T17:00:31.293Z,2.08
2023-01-29T17:03:05.191Z,2.07
2023-01-29T17:05:36.667Z,2.09
2023-01-29T17:08:06.193Z,2.12
2023-01-29T17:10:36.268Z,2.12
2023-01-29T17:13:07.803Z,2.04
2023-01-29T17:15:50.928Z,2.05
2023-01-29T17:18:22.145Z,2.07
2023-01-29T17:20:53.216Z,2.08
2023-01-29T17:23:23.408Z,2.06
2023-01-29T17:25:52.620Z,2.01
2023-01-29T17:28:25.083Z,2.04
2023-01-29T17:31:05.925Z,1.96
2023-01-29T17:33:37.004Z,2.03
2023-01-29T17:36:05.895Z,2.01
2023-01-29T17:38:34.920Z,2.04
2023-01-29T17:41:07.894Z,2.03
2023-01-29T17:43:36.473Z,2.04
2023-01-29T17:46:07.350Z,2.06
2023-01-29T17:48:35.903Z,2.05
2023-01-29T17:51:06.003Z,2.01
2023-01-29T17:53:45.585Z,1.95
2023-01-29T17:56:18.893Z,1.91
2023-01-29T17:58:47.974Z,1.91
2023-01-29T18:01:18.663Z,1.91
2023-01-29T18:03:47.282Z,1.83
2023-01-29T18:06:27.522Z,1.92
2023-01-29T18:08:57.701Z,1.88
2023-01-29T18:11:26.540Z,1.92
2023-01-29T18:13:55.392Z,1.89
2023-01-29T18:16:26.341Z,1.90
2023-01-29T18:18:55.163Z,1.88
2023-01-29T18:21:23.593Z,1.86
2023-01-29T18:23:52.498Z,1.87
2023-01-29T18:26:22.504Z,1.89
2023-01-29T18:28:51.961Z,1.88
2023-01-29T18:31:20.453Z,1.88
2023-01-29T18:33:51.257Z,1.89
2023-01-29T18:36:19.676Z,1.91
2023-01-29T18:38:48.131Z,1.88
2023-01-29T18:41:17.016Z,1.83
2023-01-29T18:43:45.626Z,1.80
2023-01-29T18:46:14.310Z,1.81
2023-01-29T18:48:43.029Z,1.81
2023-01-29T18:51:13.123Z,1.74
2023-01-29T18:53:41.851Z,1.82
2023-01-29T18:56:12.138Z,1.82
2023-01-29T18:58:40.484Z,1.81
2023-01-29T19:01:12.237Z,1.84
2023-01-29T19:03:42.292Z,1.83
2023-01-29T19:06:13.952Z,1.82
2023-01-29T19:08:43.179Z,1.81
2023-01-29T19:11:12.776Z,1.84
2023-01-29T19:13:43.144Z,1.83
2023-01-29T19:16:12.847Z,1.88
2023-01-29T19:18:45.821Z,1.88
2023-01-29T19:21:20.556Z,1.86
2023-01-29T19:23:49.454Z,1.94
2023-01-29T19:26:18.163Z,1.96
2023-01-29T19:28:46.608Z,1.96
2023-01-29T19:31:15.155Z,1.87
2023-01-29T19:33:43.690Z,1.86
2023-01-29T19:36:13.805Z,1.83
2023-01-29T19:38:43.845Z,1.83
2023-01-29T19:41:12.609Z,1.80
2023-01-29T19:43:43.209Z,1.83
2023-01-29T19:46:11.853Z,1.75
2023-01-29T19:48:40.433Z,1.82
2023-01-29T19:51:12.283Z,1.84
2023-01-29T19:53:44.048Z,1.80
2023-01-29T19:56:16.064Z,1.81
2023-01-29T19:58:45.137Z,1.77
2023-01-29T20:01:17.026Z,1.73
2023-01-29T20:03:46.816Z,1.75
2023-01-29T20:06:18.163Z,1.74
2023-01-29T20:08:48.013Z,1.65
2023-01-29T20:11:19.690Z,1.66
2023-01-29T20:13:49.918Z,1.65
2023-01-29T20:16:19.496Z,1.61
2023-01-29T20:18:48.158Z,1.61
2023-01-29T20:21:20.653Z,1.58
2023-01-29T20:23:52.019Z,1.55
2023-01-29T20:26:23.219Z,1.53
2023-01-29T20:28:51.787Z,1.49
2023-01-29T20:31:20.351Z,1.43
2023-01-29T20:33:48.811Z,1.39
2023-01-29T20:36:17.284Z,1.36
2023-01-29T20:38:46.136Z,1.33
2023-01-29T20:41:17.942Z,1.32
2023-01-29T20:43:51.057Z,1.31
2023-01-29T20:46:20.056Z,1.27
2023-01-29T20:48:49.338Z,1.21
2023-01-29T20:51:19.790Z,1.18
2023-01-29T20:53:49.412Z,1.19
2023-01-29T20:56:32.037Z,1.21
2023-01-29T20:59:06.618Z,1.12
2023-01-29T21:01:35.105Z,1.12
2023-01-29T21:04:03.694Z,1.12
2023-01-29T21:06:36.312Z,1.13
2023-01-29T21:09:04.868Z,1.01
2023-01-29T21:11:33.743Z,1.11
2023-01-29T21:14:02.229Z,1.11
2023-01-29T21:16:32.420Z,1.10
2023-01-29T21:19:01.249Z,1.02
2023-01-29T21:21:29.800Z,1.09
2023-01-29T21:23:59.253Z,1.08
2023-01-29T21:26:27.867Z,1.09
2023-01-29T21:28:56.369Z,1.08
2023-01-29T21:31:24.935Z,1.10
2023-01-29T21:33:54.765Z,1.13
2023-01-29T21:36:23.366Z,1.09
2023-01-29T21:38:51.754Z,1.01
2023-01-29T21:41:40.377Z,1.09
2023-01-29T21:44:08.799Z,1.09
2023-01-29T21:46:37.318Z,1.09
2023-01-29T21:49:07.443Z,1.06
2023-01-29T21:51:35.928Z,1.02
2023-01-29T21:54:04.428Z,0.98
2023-01-29T21:56:32.899Z,0.96
2023-01-29T21:59:02.571Z,0.96
2023-01-29T22:01:37.373Z,0.96
2023-01-29T22:04:09.977Z,0.92
2023-01-29T22:06:38.513Z,0.94
2023-01-29T22:09:07.052Z,0.95
2023-01-29T22:11:35.789Z,0.88
2023-01-29T22:14:04.349Z,0.88
2023-01-29T22:16:32.779Z,0.78
2023-01-29T22:19:01.660Z,0.86
2023-01-29T22:21:31.576Z,0.83
2023-01-29T22:24:00.376Z,0.74
2023-01-29T22:26:29.809Z,0.80
2023-01-29T22:28:58.369Z,0.77
2023-01-29T22:31:26.892Z,0.76
2023-01-29T22:33:55.565Z,0.77
2023-01-29T22:36:24.439Z,0.69
2023-01-29T22:38:54.488Z,0.63
2023-01-29T22:41:23.013Z,0.73
2023-01-29T22:43:51.537Z,0.72
2023-01-29T22:46:20.082Z,0.70
2023-01-29T22:48:48.599Z,0.69
2023-01-29T22:51:17.001Z,0.69
2023-01-29T22:53:50.302Z,0.71
2023-01-29T22:56:21.765Z,0.64
2023-01-29T22:58:52.651Z,0.62
2023-01-29T23:01:21.941Z,0.61
2023-01-29T23:03:50.471Z,0.58
2023-01-29T23:06:19.591Z,0.60
2023-01-29T23:08:48.397Z,0.59
2023-01-29T23:11:20.265Z,0.62
2023-01-29T23:13:51.604Z,0.63
2023-01-29T23:16:21.520Z,0.65
2023-01-29T23:18:52.086Z,0.62
2023-01-29T23:21:21.321Z,0.58
2023-01-29T23:23:52.803Z,0.62
2023-01-29T23:26:38.602Z,0.60
2023-01-29T23:29:08.503Z,0.62
2023-01-29T23:31:37.006Z,0.60
2023-01-29T23:34:05.456Z,0.60
2023-01-29T23:36:33.978Z,0.63
2023-01-29T23:39:02.520Z,0.61
2023-01-29T23:41:32.197Z,0.61
2023-01-29T23:44:00.966Z,0.57
2023-01-29T23:46:31.007Z,0.53
2023-01-29T23:48:59.544Z,0.53
2023-01-29T23:51:28.078Z,0.53
2023-01-29T23:53:56.855Z,0.51
2023-01-29T23:56:26.166Z,0.57
2023-01-29T23:58:56.767Z,0.52
